»·PEaware :: KAL38 KORD-RKSI

KAL38 :: KORD-RKSI

FLIGHT INFORMATION

Flight Status: Arrived
Operator:
Korean Air
More flights by this operator :: More flights under this callsign
Pilot: Alec Stelloh (3098)
Aircraft: Unknown
(B788)
More flights by this aircraft type
Origin: KORD Chicago-O'Hare Intl
United States
Destination: RKSI Incheon Intl
Republic of Korea
More flights between these airports :: More routes between these airports
Route: PMPKN NEATO DLLAN RONIC BAE J89 DLH J538 VBI YNE NCA16 YSM LAT63 YXY NCA22 ENN ENM G583 BALUB G583 MVE CHE Y12 HWE Y14 DRIPS Y16 SAPRA Y685 GUKDO
File this flight plan on PilotEdge
Remarks:
Altitude:
(Current/Filed)
31,000ft
Speed:
(Current/Filed)
490kts
Departed: 06-Jul-15 06:33 PM
Arrived: 07-Jul-15 07:36 AM
Distance/Time
Traveled:
5677nm/13:03
Distance/Time
To Go:
Arrived

Flight Plot

Page will automatically refresh every two minutes.


Map Options




Map Legend


Flown Route
Filed Route
Departure Airport
Arrival Airport
Navaid (VOR, NDB)
Fix

Horizontal Profiles

Position Reports

Time Latitude Longitude Heading Altitude Ground
Speed
06-Jul-15 18:22 41.973432 -87.889917 0 677ft 0kts
06-Jul-15 18:23 41.973432 -87.889917 0 677ft 0kts
06-Jul-15 18:24 41.973432 -87.889917 0 677ft 0kts
06-Jul-15 18:25 41.973432 -87.889917 0 677ft 0kts
06-Jul-15 18:26 41.973432 -87.889917 0 677ft 0kts
06-Jul-15 18:27 41.973102 -87.889932 11 677ft 1kts
06-Jul-15 18:28 41.972692 -87.890366 58 677ft 1kts
06-Jul-15 18:29 41.972699 -87.889876 86 677ft 6kts
06-Jul-15 18:30 41.972722 -87.886213 89 677ft 12kts
06-Jul-15 18:31 41.971233 -87.883699 183 677ft 8kts
06-Jul-15 18:32 41.969025 -87.889431 270 677ft 80kts
06-Jul-15 18:33 41.971650 -87.952213 294 1410ft 218kts
06-Jul-15 18:34 42.026749 -87.947880 27 3558ft 245kts
06-Jul-15 18:35 42.099101 -87.921945 1 5524ft 295kts
06-Jul-15 18:36 42.182211 -87.924543 356 7536ft 304kts
06-Jul-15 18:37 42.267537 -87.930708 355 9548ft 308kts
06-Jul-15 18:38 42.353046 -87.939481 353 11621ft 321kts
06-Jul-15 18:39 42.445803 -87.950451 355 13671ft 351kts
06-Jul-15 18:40 42.545437 -87.962528 354 15696ft 370kts
06-Jul-15 18:41 42.636265 -87.973211 357 17455ft 378kts
06-Jul-15 18:42 42.739913 -87.993035 332 19505ft 383kts
06-Jul-15 18:43 42.833551 -88.062739 332 21487ft 388kts
06-Jul-15 18:44 42.921089 -88.130605 328 23298ft 385kts
06-Jul-15 18:45 43.012582 -88.202169 328 25245ft 373kts
06-Jul-15 18:46 43.099530 -88.270463 328 27123ft 351kts
06-Jul-15 18:47 43.177232 -88.343567 322 28295ft 339kts
06-Jul-15 18:48 43.254519 -88.419636 322 28828ft 346kts
06-Jul-15 18:49 43.333402 -88.497523 322 29348ft 353kts
06-Jul-15 18:50 43.413741 -88.576991 322 29876ft 360kts
06-Jul-15 18:51 43.495498 -88.658303 321 30414ft 366kts
06-Jul-15 18:52 43.561584 -88.724264 322 30823ft 370kts
06-Jul-15 18:53 43.639720 -88.802466 322 30908ft 388kts
06-Jul-15 18:54 43.729901 -88.892815 322 30909ft 413kts
06-Jul-15 18:55 43.825441 -88.989149 322 30894ft 441kts
06-Jul-15 18:56 43.927678 -89.092660 322 30900ft 470kts
06-Jul-15 18:57 44.033413 -89.199501 322 30898ft 499kts
06-Jul-15 18:58 44.146195 -89.314533 322 30885ft 502kts
06-Jul-15 18:59 44.256513 -89.427913 323 30916ft 487kts
06-Jul-15 19:00 44.364732 -89.540272 324 30939ft 489kts
06-Jul-15 19:01 44.473319 -89.652628 324 30941ft 484kts
06-Jul-15 19:02 44.577963 -89.761604 325 30948ft 486kts
06-Jul-15 19:03 44.686346 -89.874714 324 30945ft 483kts
06-Jul-15 19:04 44.794300 -89.988269 325 30950ft 486kts
06-Jul-15 19:05 44.901719 -90.101587 324 30971ft 483kts
06-Jul-15 19:06 45.005962 -90.211563 324 30989ft 485kts
06-Jul-15 19:07 45.112956 -90.325306 323 30988ft 480kts
06-Jul-15 19:08 45.219477 -90.439587 324 30988ft 481kts
06-Jul-15 19:09 45.326755 -90.554795 323 30996ft 487kts
06-Jul-15 19:10 45.434490 -90.671269 322 31012ft 488kts
06-Jul-15 19:11 45.541982 -90.788340 323 31017ft 490kts
06-Jul-15 19:12 45.645487 -90.901145 323 31019ft 489kts
06-Jul-15 19:13 45.753154 -91.019367 323 31020ft 488kts
06-Jul-15 19:14 45.842068 -91.117369 323 31020ft 492kts
06-Jul-15 19:15 45.951498 -91.237783 322 31020ft 498kts
06-Jul-15 19:16 46.060499 -91.359036 322 31019ft 495kts
06-Jul-15 19:17 46.169337 -91.480793 322 31019ft 494kts
06-Jul-15 19:18 46.276697 -91.601396 322 31037ft 492kts
06-Jul-15 19:19 46.384070 -91.722776 321 31037ft 490kts
06-Jul-15 19:20 46.490555 -91.843783 321 31040ft 486kts
06-Jul-15 19:21 46.593015 -91.960758 320 31050ft 479kts
06-Jul-15 19:22 46.697334 -92.080637 322 31055ft 480kts
06-Jul-15 19:23 46.801040 -92.197025 329 31044ft 480kts
06-Jul-15 19:24 46.920847 -92.280119 335 31050ft 477kts
06-Jul-15 19:25 47.041769 -92.359618 336 31049ft 479kts
06-Jul-15 19:26 47.163297 -92.439538 336 31052ft 479kts
06-Jul-15 19:27 47.284446 -92.519704 335 31075ft 479kts
06-Jul-15 19:28 47.406106 -92.600836 335 31088ft 480kts
06-Jul-15 19:29 47.527146 -92.681924 335 31086ft 479kts
06-Jul-15 19:30 47.646905 -92.762337 335 31104ft 489kts
06-Jul-15 19:31 47.770322 -92.845861 335 31109ft 491kts
06-Jul-15 19:32 47.894136 -92.929958 335 31109ft 491kts
06-Jul-15 19:33 48.018047 -93.014636 335 31110ft 491kts
06-Jul-15 19:34 48.140920 -93.099063 336 31122ft 485kts
06-Jul-15 19:35 48.260110 -93.180558 335 31129ft 482kts
06-Jul-15 19:36 48.381221 -93.264552 334 31128ft 482kts
06-Jul-15 19:37 48.502527 -93.349175 334 31128ft 482kts
06-Jul-15 19:38 48.621726 -93.433291 333 31132ft 482kts
06-Jul-15 19:39 48.742535 -93.519013 335 31520ft 482kts
06-Jul-15 19:40 48.863793 -93.604806 335 32018ft 481kts
06-Jul-15 19:41 48.984115 -93.690601 334 32508ft 479kts
06-Jul-15 19:42 49.104767 -93.777046 334 32997ft 478kts
06-Jul-15 19:43 49.225349 -93.864126 335 33140ft 486kts
06-Jul-15 19:44 49.328412 -93.938600 335 33149ft 492kts
06-Jul-15 19:45 49.451621 -94.028300 335 33149ft 491kts
06-Jul-15 19:46 49.564299 -94.137015 326 33149ft 491kts
06-Jul-15 19:47 49.677562 -94.253698 326 33150ft 492kts
06-Jul-15 19:48 49.791356 -94.372093 326 33150ft 493kts
06-Jul-15 19:49 49.904156 -94.490160 326 33149ft 491kts
06-Jul-15 19:50 50.017035 -94.609043 326 33149ft 491kts
06-Jul-15 19:51 50.129690 -94.728346 326 33149ft 491kts
06-Jul-15 19:52 50.241777 -94.847725 326 33149ft 491kts
06-Jul-15 19:53 50.354512 -94.968531 326 33149ft 492kts
06-Jul-15 19:54 50.467316 -95.090084 326 33149ft 492kts
06-Jul-15 19:55 50.575790 -95.206874 325 33150ft 492kts
06-Jul-15 19:56 50.687412 -95.328506 325 33150ft 493kts
06-Jul-15 19:57 50.797744 -95.449474 325 33149ft 493kts
06-Jul-15 19:58 50.907626 -95.570707 325 33157ft 491kts
06-Jul-15 19:59 51.017892 -95.692943 325 33181ft 484kts
06-Jul-15 20:00 51.126730 -95.814352 324 33198ft 482kts
06-Jul-15 20:01 51.235875 -95.937000 324 33195ft 485kts
06-Jul-15 20:02 51.345216 -96.060635 324 33197ft 482kts
06-Jul-15 20:03 51.453449 -96.182727 323 33199ft 482kts
06-Jul-15 20:04 51.560334 -96.304716 323 33200ft 483kts
06-Jul-15 20:05 51.668197 -96.428727 323 33200ft 483kts
06-Jul-15 20:06 51.776733 -96.554189 323 33200ft 485kts
06-Jul-15 20:07 51.886051 -96.681424 322 33199ft 486kts
06-Jul-15 20:08 51.994658 -96.808678 323 33198ft 483kts
06-Jul-15 20:09 52.102999 -96.936075 322 33139ft 489kts
06-Jul-15 20:10 52.206171 -97.058396 322 33090ft 498kts
06-Jul-15 20:11 52.314474 -97.186809 321 33090ft 495kts
06-Jul-15 20:12 52.424889 -97.319045 321 33091ft 498kts
06-Jul-15 20:13 52.535745 -97.452879 321 33091ft 500kts
06-Jul-15 20:14 52.646498 -97.587428 321 33088ft 499kts
06-Jul-15 20:15 52.757282 -97.722908 321 33087ft 495kts
06-Jul-15 20:16 52.868258 -97.859494 321 33089ft 501kts
06-Jul-15 20:17 52.979110 -97.996805 321 33088ft 499kts
06-Jul-15 20:18 53.089189 -98.133863 321 33080ft 504kts
06-Jul-15 20:19 53.202101 -98.274860 321 33079ft 507kts
06-Jul-15 20:20 53.313321 -98.415439 321 33081ft 508kts
06-Jul-15 20:21 53.425730 -98.558413 321 33081ft 508kts
06-Jul-15 20:22 53.536279 -98.699967 321 33081ft 506kts
06-Jul-15 20:23 53.644466 -98.839497 320 33077ft 504kts
06-Jul-15 20:24 53.755320 -98.983400 320 33078ft 503kts
06-Jul-15 20:25 53.862654 -99.123633 320 33079ft 494kts
06-Jul-15 20:26 53.970168 -99.264204 319 33080ft 501kts
06-Jul-15 20:27 54.080227 -99.409971 320 33081ft 505kts
06-Jul-15 20:28 54.189696 -99.555995 320 33086ft 499kts
06-Jul-15 20:29 54.298608 -99.702236 320 33089ft 499kts
06-Jul-15 20:30 54.407415 -99.849363 320 33089ft 501kts
06-Jul-15 20:31 54.516670 -99.998160 320 33090ft 503kts
06-Jul-15 20:32 54.624508 -100.145707 319 33089ft 504kts
06-Jul-15 20:33 54.732929 -100.294757 319 33089ft 498kts
06-Jul-15 20:34 54.840655 -100.444529 319 33090ft 503kts
06-Jul-15 20:35 54.949496 -100.596986 319 33089ft 504kts
06-Jul-15 20:36 55.058365 -100.750571 319 33089ft 505kts
06-Jul-15 20:37 55.149278 -100.879674 319 33090ft 505kts
06-Jul-15 20:38 55.256852 -101.033461 319 33088ft 499kts
06-Jul-15 20:39 55.358798 -101.179507 318 33091ft 501kts
06-Jul-15 20:40 55.465503 -101.333847 318 33011ft 499kts
06-Jul-15 20:41 55.569969 -101.486376 318 32949ft 503kts
06-Jul-15 20:42 55.677292 -101.644236 318 32948ft 501kts
06-Jul-15 20:43 55.775859 -101.790245 318 32949ft 503kts
06-Jul-15 20:44 55.882603 -101.949501 318 32948ft 499kts
06-Jul-15 20:45 55.986681 -102.105901 318 32949ft 499kts
06-Jul-15 20:46 56.088181 -102.258542 318 32949ft 496kts
06-Jul-15 20:47 56.193576 -102.419105 317 32949ft 499kts
06-Jul-15 20:48 56.298989 -102.581052 317 32950ft 503kts
06-Jul-15 20:49 56.404795 -102.744829 317 32949ft 501kts
06-Jul-15 20:50 56.510126 -102.909116 317 32950ft 502kts
06-Jul-15 20:51 56.611591 -103.068559 317 32947ft 503kts
06-Jul-15 20:52 56.716469 -103.233581 317 32948ft 501kts
06-Jul-15 20:53 56.821522 -103.400861 316 32933ft 507kts
06-Jul-15 20:54 56.928505 -103.573130 316 32928ft 518kts
06-Jul-15 20:55 57.035632 -103.746636 315 32928ft 511kts
06-Jul-15 20:56 57.141765 -103.920248 316 32932ft 517kts
06-Jul-15 20:57 57.247221 -104.093712 315 32928ft 503kts
06-Jul-15 20:58 57.350663 -104.264444 314 32933ft 507kts
06-Jul-15 20:59 57.454874 -104.438677 314 32930ft 502kts
06-Jul-15 21:00 57.554193 -104.606204 314 32931ft 506kts
06-Jul-15 21:01 57.636094 -104.745279 314 32927ft 506kts
06-Jul-15 21:02 57.737424 -104.918611 314 32926ft 497kts
06-Jul-15 21:03 57.839904 -105.095334 314 32929ft 507kts
06-Jul-15 21:04 57.942830 -105.273069 314 32929ft 507kts
06-Jul-15 21:05 58.045397 -105.452722 314 32929ft 506kts
06-Jul-15 21:06 58.148506 -105.635018 314 32934ft 514kts
06-Jul-15 21:07 58.249249 -105.814905 315 32970ft 482kts
06-Jul-15 21:08 58.346358 -105.988927 316 32989ft 483kts
06-Jul-15 21:09 58.443378 -106.163932 315 32989ft 483kts
06-Jul-15 21:10 58.540223 -106.340039 315 32988ft 483kts
06-Jul-15 21:11 58.629821 -106.504606 315 32990ft 483kts
06-Jul-15 21:12 58.726110 -106.683283 316 32989ft 483kts
06-Jul-15 21:13 58.822192 -106.862624 315 32989ft 483kts
06-Jul-15 21:14 58.917909 -107.043029 316 32989ft 483kts
06-Jul-15 21:15 59.011950 -107.220476 315 32990ft 483kts
06-Jul-15 21:16 59.107343 -107.402926 314 32989ft 483kts
06-Jul-15 21:17 59.202555 -107.586792 315 32989ft 483kts
06-Jul-15 21:18 59.296471 -107.769300 314 32979ft 483kts
06-Jul-15 21:19 59.383887 -107.941066 314 32978ft 483kts
06-Jul-15 21:20 59.476825 -108.124764 314 32978ft 483kts
06-Jul-15 21:21 59.570001 -108.309385 314 32980ft 483kts
06-Jul-15 21:22 59.663463 -108.499807 312 32981ft 483kts
06-Jul-15 21:23 59.754215 -108.694505 311 33103ft 482kts
06-Jul-15 21:24 59.841876 -108.892678 310 33139ft 481kts
06-Jul-15 21:25 59.927518 -109.097612 308 33139ft 482kts
06-Jul-15 21:26 60.008743 -109.303172 306 33140ft 481kts
06-Jul-15 21:27 60.075551 -109.509039 281 33166ft 481kts
06-Jul-15 21:28 60.048676 -109.768979 253 33787ft 483kts
06-Jul-15 21:29 60.009744 -110.024657 254 34269ft 483kts
06-Jul-15 21:30 59.977801 -110.234932 254 34671ft 485kts
06-Jul-15 21:31 59.939680 -110.492279 254 35135ft 484kts
06-Jul-15 21:32 59.907398 -110.752279 275 35137ft 482kts
06-Jul-15 21:33 59.933779 -111.057437 283 35149ft 483kts
06-Jul-15 21:34 59.955478 -111.273784 282 35150ft 484kts
06-Jul-15 21:35 59.981007 -111.536963 282 35150ft 482kts
06-Jul-15 21:36 60.005884 -111.799876 282 35148ft 480kts
06-Jul-15 21:37 60.049226 -112.048265 304 35163ft 480kts
06-Jul-15 21:38 60.124109 -112.265213 305 35148ft 474kts
06-Jul-15 21:39 60.196206 -112.473283 305 35149ft 476kts
06-Jul-15 21:40 60.271605 -112.692611 306 35149ft 478kts
06-Jul-15 21:41 60.346301 -112.911986 305 35147ft 475kts
06-Jul-15 21:42 60.419822 -113.129863 305 35148ft 477kts
06-Jul-15 21:43 60.494069 -113.350374 304 35147ft 474kts
06-Jul-15 21:44 60.565778 -113.567191 305 35152ft 479kts
06-Jul-15 21:45 60.639627 -113.792366 305 35151ft 483kts
06-Jul-15 21:46 60.714852 -114.024047 305 35207ft 492kts
06-Jul-15 21:47 60.788943 -114.252440 303 35219ft 494kts
06-Jul-15 21:48 60.863729 -114.487720 303 35218ft 492kts
06-Jul-15 21:49 60.937938 -114.723234 303 35220ft 494kts
06-Jul-15 21:50 61.011845 -114.960400 303 35220ft 493kts
06-Jul-15 21:51 61.084684 -115.195447 302 35219ft 493kts
06-Jul-15 21:52 61.157931 -115.434264 302 35219ft 493kts
06-Jul-15 21:53 61.230657 -115.674878 302 35219ft 494kts
06-Jul-15 21:54 61.302810 -115.916207 302 35219ft 492kts
06-Jul-15 21:55 61.373924 -116.156091 302 35218ft 492kts
06-Jul-15 21:56 61.445428 -116.398579 301 35219ft 492kts
06-Jul-15 21:57 61.516190 -116.642758 301 35219ft 492kts
06-Jul-15 21:58 61.585495 -116.884479 301 35220ft 493kts
06-Jul-15 21:59 61.654393 -117.127350 300 35219ft 494kts
06-Jul-15 22:00 61.724569 -117.375546 300 35219ft 493kts
06-Jul-15 22:01 61.793220 -117.622882 300 35219ft 492kts
06-Jul-15 22:02 61.862039 -117.873509 300 35220ft 494kts
06-Jul-15 22:03 61.929831 -118.123268 299 35219ft 493kts
06-Jul-15 22:04 61.998020 -118.375342 299 35219ft 492kts
06-Jul-15 22:05 62.065197 -118.628218 299 35230ft 493kts
06-Jul-15 22:06 62.131726 -118.881779 299 35229ft 493kts
06-Jul-15 22:07 62.196765 -119.132379 299 35229ft 494kts
06-Jul-15 22:08 62.263359 -119.389870 298 35229ft 494kts
06-Jul-15 22:09 62.328747 -119.647678 298 35229ft 495kts
06-Jul-15 22:10 62.393762 -119.907118 298 35229ft 494kts
06-Jul-15 22:11 62.457853 -120.165413 298 35229ft 494kts
06-Jul-15 22:12 62.522254 -120.426718 298 35229ft 493kts
06-Jul-15 22:13 62.585132 -120.686606 297 35230ft 494kts
06-Jul-15 22:14 62.648366 -120.951235 297 35230ft 494kts
06-Jul-15 22:15 62.710847 -121.214606 297 35230ft 494kts
06-Jul-15 22:16 62.773348 -121.481489 297 35229ft 493kts
06-Jul-15 22:17 62.834832 -121.748335 296 35230ft 495kts
06-Jul-15 22:18 62.895806 -122.016028 296 35219ft 493kts
06-Jul-15 22:19 62.956371 -122.283977 295 35220ft 493kts
06-Jul-15 22:20 63.016096 -122.552692 295 35219ft 493kts
06-Jul-15 22:21 63.075468 -122.823725 295 35219ft 493kts
06-Jul-15 22:22 63.134648 -123.097407 295 35219ft 493kts
06-Jul-15 22:23 63.191720 -123.369977 285 35220ft 492kts
06-Jul-15 22:24 63.229018 -123.652118 288 35219ft 493kts
06-Jul-15 22:25 63.271645 -123.941514 288 35219ft 493kts
06-Jul-15 22:26 63.313695 -124.229456 287 35196ft 502kts
06-Jul-15 22:27 63.356598 -124.527630 285 35169ft 505kts
06-Jul-15 22:28 63.398337 -124.826626 286 35172ft 508kts
06-Jul-15 22:29 63.433003 -125.077800 286 35171ft 508kts
06-Jul-15 22:30 63.480034 -125.421644 285 35171ft 509kts
06-Jul-15 22:31 63.520208 -125.723776 285 35171ft 509kts
06-Jul-15 22:32 63.552873 -125.974458 285 35171ft 509kts
06-Jul-15 22:33 63.591882 -126.274658 283 35166ft 502kts
06-Jul-15 22:34 63.630058 -126.578193 284 35170ft 507kts
06-Jul-15 22:35 63.667421 -126.880742 283 35168ft 501kts
06-Jul-15 22:36 63.702429 -127.169613 283 35167ft 501kts
06-Jul-15 22:37 63.737181 -127.459012 282 35168ft 503kts
06-Jul-15 22:38 63.772843 -127.765877 283 35169ft 509kts
06-Jul-15 22:39 63.808219 -128.075389 283 35169ft 504kts
06-Jul-15 22:40 63.842407 -128.379117 282 35170ft 509kts
06-Jul-15 22:41 63.876441 -128.689720 282 35169ft 509kts
06-Jul-15 22:42 63.909670 -129.001206 282 35170ft 509kts
06-Jul-15 22:43 63.942041 -129.306901 281 35169ft 508kts
06-Jul-15 22:44 63.973662 -129.616898 281 35170ft 509kts
06-Jul-15 22:45 64.003863 -129.919580 282 35170ft 510kts
06-Jul-15 22:46 64.034550 -130.231739 281 35169ft 508kts
06-Jul-15 22:47 64.064652 -130.545703 280 35170ft 504kts
06-Jul-15 22:48 64.093504 -130.858475 280 35171ft 507kts
06-Jul-15 22:49 64.121716 -131.168715 279 35163ft 505kts
06-Jul-15 22:50 64.149427 -131.480700 280 35078ft 496kts
06-Jul-15 22:51 64.176384 -131.794413 280 35040ft 503kts
06-Jul-15 22:52 64.202332 -132.105618 280 35039ft 501kts
06-Jul-15 22:53 64.228158 -132.418041 280 35039ft 502kts
06-Jul-15 22:54 64.252956 -132.732004 279 35039ft 502kts
06-Jul-15 22:55 64.277189 -133.048922 279 35039ft 502kts
06-Jul-15 22:56 64.298722 -133.332804 279 35040ft 502kts
06-Jul-15 22:57 64.321685 -133.649759 278 35040ft 504kts
06-Jul-15 22:58 64.343822 -133.967098 278 35039ft 502kts
06-Jul-15 22:59 64.365359 -134.279783 278 35040ft 502kts
06-Jul-15 23:00 64.385027 -134.577922 278 35039ft 502kts
06-Jul-15 23:01 64.405171 -134.896602 278 35039ft 502kts
06-Jul-15 23:02 64.424751 -135.213807 277 35039ft 502kts
06-Jul-15 23:03 64.443767 -135.532420 277 35193ft 501kts
06-Jul-15 23:04 64.461879 -135.852333 277 35687ft 502kts
06-Jul-15 23:05 64.479145 -136.170171 277 36171ft 500kts
06-Jul-15 23:06 64.496292 -136.489684 276 36663ft 500kts
06-Jul-15 23:07 64.512107 -136.808800 276 37047ft 501kts
06-Jul-15 23:08 64.527250 -137.125173 275 37049ft 499kts
06-Jul-15 23:09 64.542318 -137.446418 275 37050ft 501kts
06-Jul-15 23:10 64.556081 -137.765395 275 37049ft 499kts
06-Jul-15 23:11 64.568602 -138.069912 275 37049ft 500kts
06-Jul-15 23:12 64.581561 -138.388419 273 37005ft 504kts
06-Jul-15 23:13 64.593571 -138.717708 273 36948ft 515kts
06-Jul-15 23:14 64.604789 -139.042812 273 36945ft 508kts
06-Jul-15 23:15 64.615674 -139.366416 272 36949ft 511kts
06-Jul-15 23:16 64.625472 -139.691973 272 36949ft 507kts
06-Jul-15 23:17 64.634462 -140.015867 272 36946ft 508kts
06-Jul-15 23:18 64.643151 -140.341967 272 36942ft 508kts
06-Jul-15 23:19 64.650876 -140.667101 272 36942ft 508kts
06-Jul-15 23:20 64.657827 -140.994505 272 36937ft 505kts
06-Jul-15 23:21 64.664383 -141.319668 271 36939ft 506kts
06-Jul-15 23:22 64.669960 -141.648016 271 36939ft 508kts
06-Jul-15 23:23 64.674743 -141.976859 271 36939ft 507kts
06-Jul-15 23:24 64.679080 -142.299470 270 36939ft 505kts
06-Jul-15 23:25 64.682506 -142.626482 270 36939ft 505kts
06-Jul-15 23:26 64.685088 -142.954219 270 36939ft 505kts
06-Jul-15 23:27 64.687269 -143.276519 269 36939ft 505kts
06-Jul-15 23:28 64.688680 -143.604699 268 36920ft 512kts
06-Jul-15 23:29 64.689035 -143.936373 268 36917ft 505kts
06-Jul-15 23:30 64.689007 -144.258615 267 36920ft 506kts
06-Jul-15 23:31 64.688168 -144.587169 267 36917ft 506kts
06-Jul-15 23:32 64.686409 -144.912908 267 36919ft 511kts
06-Jul-15 23:33 64.684554 -145.185112 266 36916ft 501kts
06-Jul-15 23:34 64.681603 -145.537160 266 36917ft 502kts
06-Jul-15 23:35 64.677716 -145.867198 266 36918ft 510kts
06-Jul-15 23:36 64.674018 -146.136401 265 36918ft 505kts
06-Jul-15 23:37 64.669117 -146.467854 266 36854ft 523kts
06-Jul-15 23:38 64.663220 -146.802201 266 36847ft 518kts
06-Jul-15 23:39 64.656426 -147.135804 265 36848ft 521kts
06-Jul-15 23:40 64.649283 -147.471496 265 36846ft 520kts
06-Jul-15 23:41 64.641121 -147.802885 266 36830ft 510kts
06-Jul-15 23:42 64.632264 -148.129890 264 36829ft 509kts
06-Jul-15 23:43 64.623377 -148.451196 264 36822ft 505kts
06-Jul-15 23:44 64.613180 -148.772930 264 36808ft 495kts
06-Jul-15 23:45 64.598468 -149.091517 248 36819ft 499kts
06-Jul-15 23:46 64.570691 -149.400466 259 36806ft 499kts
06-Jul-15 23:47 64.550860 -149.718000 259 36808ft 501kts
06-Jul-15 23:48 64.530128 -150.039568 259 36809ft 506kts
06-Jul-15 23:49 64.511330 -150.327676 259 36804ft 493kts
06-Jul-15 23:50 64.489376 -150.645732 260 36805ft 508kts
06-Jul-15 23:51 64.467303 -150.959554 260 36789ft 494kts
06-Jul-15 23:52 64.445685 -151.259804 260 36790ft 496kts
06-Jul-15 23:53 64.422407 -151.570813 259 36789ft 496kts
06-Jul-15 23:54 64.398122 -151.883567 259 36789ft 496kts
06-Jul-15 23:55 64.373543 -152.193056 259 36789ft 496kts
06-Jul-15 23:56 64.348282 -152.504879 258 36789ft 496kts
06-Jul-15 23:57 64.321967 -152.816571 258 36789ft 496kts
06-Jul-15 23:58 64.296599 -153.109244 258 36789ft 496kts
06-Jul-15 23:59 64.269580 -153.418785 258 36813ft 496kts
07-Jul-15 00:00 64.241304 -153.729162 258 36859ft 497kts
07-Jul-15 00:01 64.212332 -154.039019 257 36859ft 497kts
07-Jul-15 00:02 64.183531 -154.344245 257 36848ft 498kts
07-Jul-15 00:03 64.153458 -154.652261 256 36855ft 490kts
07-Jul-15 00:04 64.123410 -154.950707 256 36860ft 488kts
07-Jul-15 00:05 64.093305 -155.247375 256 36860ft 488kts
07-Jul-15 00:06 64.061886 -155.549049 255 36860ft 490kts
07-Jul-15 00:07 64.029575 -155.850014 255 36860ft 491kts
07-Jul-15 00:08 63.997041 -156.146844 255 36842ft 481kts
07-Jul-15 00:09 63.965154 -156.436850 255 36826ft 473kts
07-Jul-15 00:10 63.932102 -156.726115 255 36819ft 473kts
07-Jul-15 00:11 63.898448 -157.014696 256 36820ft 476kts
07-Jul-15 00:12 63.865043 -157.301844 254 36819ft 473kts
07-Jul-15 00:13 63.831402 -157.580085 254 36820ft 473kts
07-Jul-15 00:14 63.796034 -157.867707 254 36854ft 480kts
07-Jul-15 00:15 63.760215 -158.153456 253 36868ft 482kts
07-Jul-15 00:16 63.723543 -158.444307 253 36869ft 481kts
07-Jul-15 00:17 63.686012 -158.732889 253 36869ft 482kts
07-Jul-15 00:18 63.648400 -159.016713 253 36859ft 487kts
07-Jul-15 00:19 63.610600 -159.300527 252 36854ft 499kts
07-Jul-15 00:20 63.570364 -159.596915 249 36809ft 487kts
07-Jul-15 00:21 63.530190 -159.882817 249 36806ft 485kts
07-Jul-15 00:22 63.489725 -160.167837 250 36784ft 492kts
07-Jul-15 00:23 63.449171 -160.452461 250 36788ft 498kts
07-Jul-15 00:24 63.406822 -160.741400 250 36791ft 491kts
07-Jul-15 00:25 63.363853 -161.029159 250 36792ft 496kts
07-Jul-15 00:26 63.320850 -161.315797 249 36787ft 488kts
07-Jul-15 00:27 63.276160 -161.605781 250 36761ft 499kts
07-Jul-15 00:28 63.231178 -161.893518 249 36760ft 495kts
07-Jul-15 00:29 63.185807 -162.179390 249 36759ft 494kts
07-Jul-15 00:30 63.139852 -162.465854 248 36760ft 497kts
07-Jul-15 00:31 63.092700 -162.753109 249 36760ft 499kts
07-Jul-15 00:32 63.045047 -163.039183 248 36760ft 498kts
07-Jul-15 00:33 62.999007 -163.313768 247 36752ft 469kts
07-Jul-15 00:34 62.953322 -163.580420 246 36758ft 472kts
07-Jul-15 00:35 62.906067 -163.851463 246 36730ft 483kts
07-Jul-15 00:36 62.857506 -164.126177 246 36707ft 482kts
07-Jul-15 00:37 62.809064 -164.399387 246 36710ft 482kts
07-Jul-15 00:38 62.763582 -164.671283 252 36707ft 478kts
07-Jul-15 00:39 62.729510 -164.955140 253 36711ft 491kts
07-Jul-15 00:40 62.700807 -165.194819 253 36709ft 489kts
07-Jul-15 00:41 62.666689 -165.474665 253 36722ft 470kts
07-Jul-15 00:42 62.627048 -165.791809 254 36739ft 467kts
07-Jul-15 00:43 62.592556 -166.063272 253 36737ft 469kts
07-Jul-15 00:44 62.563466 -166.289650 254 36739ft 467kts
07-Jul-15 00:45 62.528623 -166.558130 251 36726ft 460kts
07-Jul-15 00:46 62.492189 -166.828771 250 36729ft 480kts
07-Jul-15 00:47 62.455157 -167.099598 250 36721ft 462kts
07-Jul-15 00:48 62.419292 -167.362590 250 36733ft 462kts
07-Jul-15 00:49 62.382545 -167.624693 250 36731ft 464kts
07-Jul-15 00:50 62.344159 -167.893091 249 36732ft 471kts
07-Jul-15 00:51 62.305655 -168.158872 249 36732ft 470kts
07-Jul-15 00:52 62.266053 -168.430210 248 36733ft 480kts
07-Jul-15 00:53 62.224129 -168.707387 251 36737ft 499kts
07-Jul-15 00:54 62.181848 -168.987866 251 36730ft 494kts
07-Jul-15 00:55 62.139499 -169.264294 250 36729ft 494kts
07-Jul-15 00:56 62.095861 -169.542408 251 36729ft 495kts
07-Jul-15 00:57 62.051672 -169.819714 250 36730ft 494kts
07-Jul-15 00:58 62.007003 -170.095118 250 36730ft 494kts
07-Jul-15 00:59 61.962301 -170.369583 250 36729ft 495kts
07-Jul-15 01:00 61.916485 -170.644474 249 36730ft 494kts
07-Jul-15 01:01 61.870094 -170.917626 250 36730ft 495kts
07-Jul-15 01:02 61.823249 -171.191520 249 36715ft 498kts
07-Jul-15 01:03 61.775728 -171.466429 246 36635ft 503kts
07-Jul-15 01:04 61.726010 -171.745978 247 36640ft 512kts
07-Jul-15 01:05 61.676099 -172.024418 246 36639ft 504kts
07-Jul-15 01:06 61.626502 -172.298774 245 36638ft 498kts
07-Jul-15 01:07 61.576912 -172.566971 245 36638ft 496kts
07-Jul-15 01:08 61.526325 -172.836597 245 36638ft 503kts
07-Jul-15 01:09 61.474363 -173.109879 245 36641ft 508kts
07-Jul-15 01:10 61.424371 -173.372651 244 36640ft 501kts
07-Jul-15 01:11 61.372003 -173.640328 245 36641ft 504kts
07-Jul-15 01:12 61.318374 -173.911926 245 36641ft 506kts
07-Jul-15 01:13 61.264841 -174.179108 244 36640ft 504kts
07-Jul-15 01:14 61.210488 -174.448521 244 36639ft 506kts
07-Jul-15 01:15 61.156174 -174.712774 243 36640ft 501kts
07-Jul-15 01:16 61.101707 -174.973690 243 36640ft 496kts
07-Jul-15 01:17 61.045970 -175.238623 244 36640ft 509kts
07-Jul-15 01:18 60.990486 -175.499129 243 36644ft 492kts
07-Jul-15 01:19 60.935974 -175.751051 243 36636ft 479kts
07-Jul-15 01:20 60.880877 -176.002378 243 36641ft 490kts
07-Jul-15 01:21 60.825286 -176.254918 242 36639ft 484kts
07-Jul-15 01:22 60.770432 -176.499918 242 36637ft 478kts
07-Jul-15 01:23 60.714068 -176.748158 242 36638ft 483kts
07-Jul-15 01:24 60.656921 -176.996901 242 36639ft 486kts
07-Jul-15 01:25 60.599926 -177.243881 241 36637ft 484kts
07-Jul-15 01:26 60.543042 -177.486564 241 36841ft 483kts
07-Jul-15 01:27 60.485218 -177.729855 241 37318ft 488kts
07-Jul-15 01:28 60.429856 -177.960242 241 37770ft 485kts
07-Jul-15 01:29 60.371523 -178.201505 241 38267ft 489kts
07-Jul-15 01:30 60.311801 -178.445752 241 38608ft 490kts
07-Jul-15 01:31 60.251452 -178.688838 240 38610ft 489kts
07-Jul-15 01:32 60.190921 -178.929876 240 38611ft 487kts
07-Jul-15 01:33 60.130854 -179.168238 240 38609ft 488kts
07-Jul-15 01:34 60.069128 -179.409508 239 38611ft 481kts
07-Jul-15 01:35 60.010205 -179.636296 240 38608ft 452kts
07-Jul-15 01:36 59.952000 -179.858842 239 38610ft 460kts
07-Jul-15 01:37 59.893874 179.924754 244 38591ft 440kts
07-Jul-15 01:38 59.838245 179.711783 244 38617ft 436kts
07-Jul-15 01:39 59.782448 179.502966 241 38608ft 428kts
07-Jul-15 01:40 59.729811 179.293189 248 38610ft 431kts
07-Jul-15 01:41 59.690470 179.069511 249 38605ft 432kts
07-Jul-15 01:42 59.651904 178.848436 250 38609ft 429kts
07-Jul-15 01:43 59.620297 178.664736 250 38609ft 429kts
07-Jul-15 01:44 59.581665 178.445432 248 38606ft 431kts
07-Jul-15 01:45 59.541457 178.222942 249 38605ft 430kts
07-Jul-15 01:46 59.501457 178.002384 251 38607ft 431kts
07-Jul-15 01:47 59.461762 177.782989 249 38609ft 429kts
07-Jul-15 01:48 59.421076 177.563774 250 38611ft 430kts
07-Jul-15 01:49 59.379765 177.344309 252 38608ft 435kts
07-Jul-15 01:50 59.338397 177.125309 252 38606ft 434kts
07-Jul-15 01:51 59.296611 176.906835 249 38607ft 429kts
07-Jul-15 01:52 59.254281 176.688772 251 38611ft 434kts
07-Jul-15 01:53 59.211819 176.469313 248 38608ft 429kts
07-Jul-15 01:54 59.168718 176.253904 247 38609ft 431kts
07-Jul-15 01:55 59.125487 176.038715 248 38607ft 429kts
07-Jul-15 01:56 59.081905 175.822802 247 38612ft 430kts
07-Jul-15 01:57 59.038140 175.608594 249 38610ft 430kts
07-Jul-15 01:58 58.993606 175.393174 250 38610ft 433kts
07-Jul-15 01:59 58.949344 175.180643 248 38607ft 429kts
07-Jul-15 02:00 58.904013 174.967964 250 38606ft 433kts
07-Jul-15 02:01 58.859291 174.754541 246 38609ft 429kts
07-Jul-15 02:02 58.813248 174.543206 248 38609ft 431kts
07-Jul-15 02:03 58.767234 174.330385 247 38606ft 429kts
07-Jul-15 02:04 58.720726 174.120014 245 38605ft 431kts
07-Jul-15 02:05 58.673739 173.910456 247 38604ft 429kts
07-Jul-15 02:06 58.627432 173.701469 247 38610ft 430kts
07-Jul-15 02:07 58.579992 173.492464 247 38608ft 430kts
07-Jul-15 02:08 58.532104 173.283743 248 38608ft 433kts
07-Jul-15 02:09 58.484662 173.077843 246 38604ft 429kts
07-Jul-15 02:10 58.436061 172.871385 247 38611ft 432kts
07-Jul-15 02:11 58.388366 172.666109 246 38611ft 431kts
07-Jul-15 02:12 58.339351 172.460679 246 38611ft 430kts
07-Jul-15 02:13 58.290162 172.256340 246 38609ft 431kts
07-Jul-15 02:14 58.240677 172.051687 245 38608ft 429kts
07-Jul-15 02:15 58.190407 171.848070 247 38612ft 433kts
07-Jul-15 02:16 58.140455 171.642710 244 38610ft 429kts
07-Jul-15 02:17 58.089589 171.439501 243 38610ft 430kts
07-Jul-15 02:18 58.040344 171.244371 244 38507ft 429kts
07-Jul-15 02:19 57.989626 171.044820 243 38309ft 424kts
07-Jul-15 02:20 57.939887 170.851263 244 38312ft 425kts
07-Jul-15 02:21 57.889046 170.651974 242 38310ft 425kts
07-Jul-15 02:22 57.837123 170.453946 244 38308ft 424kts
07-Jul-15 02:23 57.785321 170.256468 243 38306ft 424kts
07-Jul-15 02:24 57.732856 170.059017 241 38305ft 427kts
07-Jul-15 02:25 57.679963 169.862768 243 38309ft 424kts
07-Jul-15 02:26 57.627216 169.666188 245 38311ft 429kts
07-Jul-15 02:27 57.573235 169.467078 245 38308ft 430kts
07-Jul-15 02:28 57.519111 169.269739 244 38306ft 426kts
07-Jul-15 02:29 57.465357 169.076317 243 38304ft 424kts
07-Jul-15 02:30 57.411210 168.883023 242 38310ft 425kts
07-Jul-15 02:31 57.357058 168.689233 242 38313ft 424kts
07-Jul-15 02:32 57.302493 168.497757 242 38311ft 425kts
07-Jul-15 02:33 57.247320 168.305575 243 38309ft 425kts
07-Jul-15 02:34 57.191701 168.113597 244 38307ft 429kts
07-Jul-15 02:35 57.135569 167.920664 244 38305ft 429kts
07-Jul-15 02:36 57.079159 167.727189 243 38312ft 429kts
07-Jul-15 02:37 57.022867 167.536923 242 38310ft 425kts
07-Jul-15 02:38 56.965656 167.346326 243 38308ft 428kts
07-Jul-15 02:39 56.907992 167.154535 243 38306ft 429kts
07-Jul-15 02:40 56.850831 166.965998 242 38305ft 425kts
07-Jul-15 02:41 56.793562 166.777886 240 38310ft 424kts
07-Jul-15 02:42 56.745596 166.622819 241 38309ft 425kts
07-Jul-15 02:43 56.677069 166.401041 238 38416ft 449kts
07-Jul-15 02:44 56.624764 166.235465 239 38541ft 472kts
07-Jul-15 02:45 56.558321 166.025257 239 38527ft 485kts
07-Jul-15 02:46 56.485629 165.796227 239 38529ft 484kts
07-Jul-15 02:47 56.433208 165.632754 239 38530ft 484kts
07-Jul-15 02:48 56.366049 165.425341 238 38530ft 485kts
07-Jul-15 02:49 56.297920 165.217239 238 38529ft 484kts
07-Jul-15 02:50 56.229768 165.010572 239 38529ft 483kts
07-Jul-15 02:51 56.161760 164.805139 238 38529ft 484kts
07-Jul-15 02:52 56.093472 164.600879 237 38530ft 486kts
07-Jul-15 02:53 56.024600 164.397449 237 38529ft 485kts
07-Jul-15 02:54 55.955009 164.193632 238 38529ft 483kts
07-Jul-15 02:55 55.885176 163.990580 238 38529ft 484kts
07-Jul-15 02:56 55.815977 163.790002 237 38529ft 484kts
07-Jul-15 02:57 55.747192 163.593006 237 38528ft 485kts
07-Jul-15 02:58 55.676165 163.391596 237 38529ft 485kts
07-Jul-15 02:59 55.604692 163.190626 237 38528ft 486kts
07-Jul-15 03:00 55.533087 162.991047 237 38528ft 485kts
07-Jul-15 03:01 55.462568 162.794899 236 38529ft 485kts
07-Jul-15 03:02 55.394271 162.606932 236 38530ft 485kts
07-Jul-15 03:03 55.322019 162.410205 236 38530ft 486kts
07-Jul-15 03:04 55.249880 162.215287 236 38530ft 486kts
07-Jul-15 03:05 55.176268 162.018035 236 38530ft 486kts
07-Jul-15 03:06 55.103498 161.823981 236 38529ft 484kts
07-Jul-15 03:07 55.030023 161.629286 235 38529ft 484kts
07-Jul-15 03:08 54.955981 161.435449 235 38529ft 484kts
07-Jul-15 03:09 54.881274 161.241433 235 38529ft 484kts
07-Jul-15 03:10 54.807029 161.050246 235 38528ft 483kts
07-Jul-15 03:11 54.733906 160.863112 235 38529ft 483kts
07-Jul-15 03:12 54.659635 160.673196 234 38529ft 484kts
07-Jul-15 03:13 54.583711 160.482053 234 38528ft 486kts
07-Jul-15 03:14 54.507353 160.291304 234 38528ft 486kts
07-Jul-15 03:15 54.432563 160.105810 234 38530ft 484kts
07-Jul-15 03:16 54.355765 159.916739 234 38529ft 485kts
07-Jul-15 03:17 54.283106 159.737987 233 38530ft 485kts
07-Jul-15 03:18 54.207842 159.555397 234 38521ft 487kts
07-Jul-15 03:19 54.130240 159.368389 234 38528ft 490kts
07-Jul-15 03:20 54.051912 159.181165 234 38529ft 490kts
07-Jul-15 03:21 53.974003 158.996340 234 38529ft 490kts
07-Jul-15 03:22 53.895988 158.811835 233 38529ft 490kts
07-Jul-15 03:23 53.817331 158.627421 233 38529ft 490kts
07-Jul-15 03:24 53.738104 158.443555 233 38529ft 490kts
07-Jul-15 03:25 53.658295 158.259705 233 38529ft 490kts
07-Jul-15 03:26 53.580465 158.081696 233 38529ft 490kts
07-Jul-15 03:27 53.500149 157.899315 232 38529ft 490kts
07-Jul-15 03:28 53.424053 157.726542 232 38529ft 490kts
07-Jul-15 03:29 53.343096 157.546551 227 38530ft 490kts
07-Jul-15 03:30 53.260163 157.368443 236 38528ft 490kts
07-Jul-15 03:31 53.185430 157.180130 236 38529ft 490kts
07-Jul-15 03:32 53.110667 156.992587 236 38529ft 490kts
07-Jul-15 03:33 53.035872 156.805413 235 38529ft 490kts
07-Jul-15 03:34 52.960736 156.619244 235 38529ft 490kts
07-Jul-15 03:35 52.884849 156.433023 235 38529ft 490kts
07-Jul-15 03:36 52.807971 156.249032 229 38531ft 490kts
07-Jul-15 03:37 52.720310 156.079830 229 38529ft 490kts
07-Jul-15 03:38 52.633338 155.910841 229 38529ft 490kts
07-Jul-15 03:39 52.546110 155.741395 229 38529ft 490kts
07-Jul-15 03:40 52.457992 155.572392 229 38529ft 490kts
07-Jul-15 03:41 52.376845 155.417822 229 38529ft 490kts
07-Jul-15 03:42 52.288549 155.250711 229 38529ft 490kts
07-Jul-15 03:43 52.199930 155.084099 229 38529ft 490kts
07-Jul-15 03:44 52.110500 154.917080 229 38529ft 490kts
07-Jul-15 03:45 52.021793 154.751474 228 38529ft 490kts
07-Jul-15 03:46 51.932013 154.585911 228 38529ft 490kts
07-Jul-15 03:47 51.857381 154.449181 228 38529ft 490kts
07-Jul-15 03:48 51.767842 154.286117 228 38529ft 490kts
07-Jul-15 03:49 51.678047 154.123645 228 38529ft 490kts
07-Jul-15 03:50 51.587498 153.960862 228 38529ft 490kts
07-Jul-15 03:51 51.497639 153.799526 227 38529ft 490kts
07-Jul-15 03:52 51.408835 153.641668 227 38529ft 490kts
07-Jul-15 03:53 51.317493 153.480567 227 38529ft 490kts
07-Jul-15 03:54 51.226479 153.321069 227 38529ft 490kts
07-Jul-15 03:55 51.134633 153.161133 227 38529ft 490kts
07-Jul-15 03:56 51.043148 153.002832 227 38529ft 490kts
07-Jul-15 03:57 50.951679 152.845139 227 38529ft 490kts
07-Jul-15 03:58 50.859815 152.687540 226 38529ft 490kts
07-Jul-15 03:59 50.767388 152.530563 226 38529ft 490kts
07-Jul-15 04:00 50.675164 152.374921 226 38529ft 490kts
07-Jul-15 04:01 50.582744 152.219906 226 38529ft 490kts
07-Jul-15 04:02 50.490359 152.065901 226 38529ft 490kts
07-Jul-15 04:03 50.398001 151.912871 226 38529ft 490kts
07-Jul-15 04:04 50.304810 151.758477 226 38529ft 490kts
07-Jul-15 04:05 50.210941 151.604751 225 38529ft 490kts
07-Jul-15 04:06 50.117207 151.452259 225 38529ft 490kts
07-Jul-15 04:07 50.023101 151.300086 225 38529ft 490kts
07-Jul-15 04:08 49.930079 151.150560 225 38529ft 490kts
07-Jul-15 04:09 49.835847 150.999985 225 38529ft 490kts
07-Jul-15 04:10 49.742038 150.850767 226 38614ft 486kts
07-Jul-15 04:11 49.649544 150.703868 225 38757ft 474kts
07-Jul-15 04:12 49.557484 150.559401 225 38765ft 475kts
07-Jul-15 04:13 49.465001 150.415087 225 38772ft 474kts
07-Jul-15 04:14 49.372293 150.271140 225 38765ft 475kts
07-Jul-15 04:15 49.279752 150.128187 225 38770ft 474kts
07-Jul-15 04:16 49.186825 149.985705 225 38766ft 474kts
07-Jul-15 04:17 49.094247 149.844026 225 38766ft 475kts
07-Jul-15 04:18 49.001847 149.703464 225 38794ft 477kts
07-Jul-15 04:19 48.905195 149.557492 226 38975ft 499kts
07-Jul-15 04:20 48.806776 149.409783 226 38973ft 498kts
07-Jul-15 04:21 48.709746 149.265197 227 38972ft 487kts
07-Jul-15 04:22 48.613257 149.121907 226 38973ft 491kts
07-Jul-15 04:23 48.516178 148.978619 225 38976ft 499kts
07-Jul-15 04:24 48.417588 148.833769 225 38968ft 497kts
07-Jul-15 04:25 48.319037 148.689700 225 38971ft 494kts
07-Jul-15 04:26 48.220334 148.546393 225 38971ft 499kts
07-Jul-15 04:27 48.120714 148.402976 225 38971ft 499kts
07-Jul-15 04:28 48.021412 148.260582 225 38972ft 498kts
07-Jul-15 04:29 47.921854 148.118759 225 38972ft 496kts
07-Jul-15 04:30 47.823431 147.979237 226 38972ft 490kts
07-Jul-15 04:31 47.724551 147.839286 225 38974ft 494kts
07-Jul-15 04:32 47.625064 147.699377 224 38974ft 497kts
07-Jul-15 04:33 47.524806 147.559456 223 38975ft 502kts
07-Jul-15 04:34 47.423511 147.419357 224 38958ft 499kts
07-Jul-15 04:35 47.325965 147.284717 224 38965ft 499kts
07-Jul-15 04:36 47.225864 147.147524 225 38962ft 495kts
07-Jul-15 04:37 47.125806 147.010944 225 38958ft 493kts
07-Jul-15 04:38 47.026071 146.875564 225 38966ft 488kts
07-Jul-15 04:39 46.925648 146.743006 220 38943ft 491kts
07-Jul-15 04:40 46.826086 146.611634 225 38913ft 482kts
07-Jul-15 04:41 46.726597 146.476680 225 38920ft 494kts
07-Jul-15 04:42 46.626313 146.341427 225 38919ft 495kts
07-Jul-15 04:43 46.526366 146.207319 225 38916ft 497kts
07-Jul-15 04:44 46.428428 146.076683 225 38909ft 491kts
07-Jul-15 04:45 46.329516 145.945243 225 38909ft 481kts
07-Jul-15 04:46 46.230842 145.814157 225 38913ft 488kts
07-Jul-15 04:47 46.130151 145.681557 224 38912ft 497kts
07-Jul-15 04:48 46.045183 145.570570 224 38912ft 491kts
07-Jul-15 04:49 45.928162 145.418124 224 38913ft 494kts
07-Jul-15 04:50 45.842904 145.307757 224 38914ft 497kts
07-Jul-15 04:51 45.725563 145.156649 225 38910ft 484kts
07-Jul-15 04:52 45.642135 145.049645 224 38914ft 488kts
07-Jul-15 04:53 45.541095 144.920715 224 38914ft 490kts
07-Jul-15 04:54 45.445904 144.799170 224 38916ft 493kts
07-Jul-15 04:55 45.344445 144.670921 224 38911ft 485kts
07-Jul-15 04:56 45.244484 144.545208 224 38910ft 483kts
07-Jul-15 04:57 45.142889 144.417956 223 38913ft 499kts
07-Jul-15 04:58 45.038489 144.288180 223 38911ft 498kts
07-Jul-15 04:59 44.935425 144.160556 224 38911ft 492kts
07-Jul-15 05:00 44.833145 144.034414 224 38913ft 491kts
07-Jul-15 05:01 44.730301 143.908262 224 38914ft 493kts
07-Jul-15 05:02 44.629870 143.785045 223 38915ft 487kts
07-Jul-15 05:03 44.527803 143.660938 223 38916ft 489kts
07-Jul-15 05:04 44.427128 143.539184 223 38911ft 498kts
07-Jul-15 05:05 44.323707 143.414912 223 38910ft 486kts
07-Jul-15 05:06 44.218522 143.299769 221 38912ft 482kts
07-Jul-15 05:07 44.113046 143.184183 220 38913ft 489kts
07-Jul-15 05:08 44.007723 143.069365 220 38912ft 491kts
07-Jul-15 05:09 43.900844 142.953466 219 38913ft 491kts
07-Jul-15 05:10 43.795346 142.839036 219 38914ft 491kts
07-Jul-15 05:11 43.688933 142.724436 219 38914ft 492kts
07-Jul-15 05:12 43.582234 142.610258 219 38914ft 486kts
07-Jul-15 05:13 43.475875 142.496936 219 38915ft 487kts
07-Jul-15 05:14 43.372479 142.387292 219 38912ft 485kts
07-Jul-15 05:15 43.265916 142.274786 219 38912ft 488kts
07-Jul-15 05:16 43.158627 142.162052 219 38911ft 489kts
07-Jul-15 05:17 43.051466 142.049935 219 38911ft 489kts
07-Jul-15 05:18 42.944071 141.938040 219 38917ft 496kts
07-Jul-15 05:19 42.836269 141.825688 218 38946ft 502kts
07-Jul-15 05:20 42.726720 141.712624 219 38944ft 494kts
07-Jul-15 05:21 42.614636 141.606161 216 38945ft 491kts
07-Jul-15 05:22 42.503366 141.502227 216 38945ft 492kts
07-Jul-15 05:23 42.391194 141.397890 216 38940ft 499kts
07-Jul-15 05:24 42.286794 141.301322 216 38937ft 490kts
07-Jul-15 05:25 42.175681 141.198737 216 38921ft 486kts
07-Jul-15 05:26 42.063810 141.096111 215 38912ft 489kts
07-Jul-15 05:27 41.952531 140.994418 215 38911ft 487kts
07-Jul-15 05:28 41.843870 140.895514 215 38912ft 491kts
07-Jul-15 05:29 41.728775 140.800897 208 38915ft 489kts
07-Jul-15 05:30 41.608667 140.717509 208 38914ft 487kts
07-Jul-15 05:31 41.489192 140.635140 208 38915ft 492kts
07-Jul-15 05:32 41.369886 140.553231 208 38918ft 495kts
07-Jul-15 05:33 41.248893 140.470487 208 38952ft 488kts
07-Jul-15 05:34 41.128872 140.388791 208 38972ft 491kts
07-Jul-15 05:35 41.009340 140.307721 208 38971ft 487kts
07-Jul-15 05:36 40.889783 140.227005 208 38972ft 486kts
07-Jul-15 05:37 40.771587 140.147469 207 38970ft 483kts
07-Jul-15 05:38 40.651999 140.067456 208 38971ft 489kts
07-Jul-15 05:39 40.533270 139.988206 208 38971ft 488kts
07-Jul-15 05:40 40.416688 139.910679 207 38971ft 485kts
07-Jul-15 05:41 40.298039 139.831632 206 38973ft 483kts
07-Jul-15 05:42 40.178613 139.752958 207 38973ft 484kts
07-Jul-15 05:43 40.058680 139.674152 206 38972ft 483kts
07-Jul-15 05:44 39.939325 139.596099 207 38972ft 484kts
07-Jul-15 05:45 39.818962 139.517722 207 38972ft 486kts
07-Jul-15 05:46 39.698753 139.439679 206 38971ft 484kts
07-Jul-15 05:47 39.578169 139.361808 206 38971ft 487kts
07-Jul-15 05:48 39.456591 139.283421 206 38973ft 494kts
07-Jul-15 05:49 39.337354 139.207044 206 38971ft 492kts
07-Jul-15 05:50 39.215124 139.128951 206 38972ft 492kts
07-Jul-15 05:51 39.092794 139.051105 206 38972ft 492kts
07-Jul-15 05:52 38.970201 138.973394 206 38972ft 492kts
07-Jul-15 05:53 38.848950 138.896859 205 38971ft 494kts
07-Jul-15 05:54 38.726800 138.819521 205 38972ft 498kts
07-Jul-15 05:55 38.603223 138.742064 205 38972ft 498kts
07-Jul-15 05:56 38.479262 138.664679 206 38973ft 497kts
07-Jul-15 05:57 38.379759 138.602773 205 38971ft 497kts
07-Jul-15 05:58 38.234920 138.513010 205 38971ft 498kts
07-Jul-15 05:59 38.111196 138.435669 212 38960ft 498kts
07-Jul-15 06:00 38.048299 138.318097 253 38992ft 495kts
07-Jul-15 06:01 38.012225 138.151316 255 38971ft 494kts
07-Jul-15 06:02 37.979728 137.995837 255 38972ft 493kts
07-Jul-15 06:03 37.944758 137.828606 255 38972ft 495kts
07-Jul-15 06:04 37.909151 137.660094 255 38972ft 497kts
07-Jul-15 06:05 37.872989 137.490854 255 38972ft 498kts
07-Jul-15 06:06 37.836778 137.322551 255 38972ft 498kts
07-Jul-15 06:07 37.800367 137.154668 255 38972ft 499kts
07-Jul-15 06:08 37.763288 136.985095 255 38972ft 500kts
07-Jul-15 06:09 37.726379 136.816415 254 38972ft 501kts
07-Jul-15 06:10 37.689107 136.647885 254 38972ft 501kts
07-Jul-15 06:11 37.651396 136.479070 254 38972ft 498kts
07-Jul-15 06:12 37.613754 136.311752 253 38972ft 495kts
07-Jul-15 06:13 37.575858 136.144941 253 38925ft 488kts
07-Jul-15 06:14 37.541171 135.992989 253 38947ft 420kts
07-Jul-15 06:15 37.510984 135.861220 253 38950ft 375kts
07-Jul-15 06:16 37.483596 135.741506 253 38951ft 340kts
07-Jul-15 06:17 37.458188 135.631986 253 38886ft 311kts
07-Jul-15 06:18 37.435454 135.534483 253 38812ft 283kts
07-Jul-15 06:19 37.413032 135.438621 253 38067ft 281kts
07-Jul-15 06:20 37.390810 135.344019 253 37431ft 279kts
07-Jul-15 06:21 37.368664 135.250309 253 36867ft 276kts
07-Jul-15 06:22 37.346769 135.157906 253 36369ft 273kts
07-Jul-15 06:23 37.325075 135.066715 253 35922ft 271kts
07-Jul-15 06:24 37.303432 134.976061 253 35512ft 269kts
07-Jul-15 06:25 37.280329 134.879599 252 34303ft 326kts
07-Jul-15 06:26 37.250795 134.755994 253 33116ft 419kts
07-Jul-15 06:27 37.214224 134.604776 253 32981ft 484kts
07-Jul-15 06:28 37.173734 134.438530 253 32960ft 501kts
07-Jul-15 06:29 37.132941 134.272276 253 32961ft 499kts
07-Jul-15 06:30 37.091856 134.105966 253 32961ft 499kts
07-Jul-15 06:31 37.050663 133.940330 253 32961ft 499kts
07-Jul-15 06:32 37.015886 133.800266 252 32962ft 499kts
07-Jul-15 06:33 36.974576 133.635926 253 32959ft 501kts
07-Jul-15 06:34 36.932026 133.467852 253 32939ft 515kts
07-Jul-15 06:35 36.888319 133.296366 252 32933ft 519kts
07-Jul-15 06:36 36.844322 133.125112 251 32934ft 519kts
07-Jul-15 06:37 36.800098 132.954138 251 32934ft 518kts
07-Jul-15 06:38 36.755853 132.783563 251 32932ft 519kts
07-Jul-15 06:39 36.711312 132.612948 251 32933ft 518kts
07-Jul-15 06:40 36.666406 132.442534 251 32933ft 519kts
07-Jul-15 06:41 36.623357 132.280459 250 32933ft 518kts
07-Jul-15 06:42 36.578017 132.110981 250 32934ft 518kts
07-Jul-15 06:43 36.532439 131.941405 250 32934ft 518kts
07-Jul-15 06:44 36.487183 131.773248 250 32932ft 519kts
07-Jul-15 06:45 36.441563 131.605476 251 32931ft 519kts
07-Jul-15 06:46 36.395235 131.436215 250 32932ft 519kts
07-Jul-15 06:47 36.348585 131.267012 250 32933ft 518kts
07-Jul-15 06:48 36.302038 131.099487 250 32914ft 511kts
07-Jul-15 06:49 36.255878 130.934133 250 32904ft 506kts
07-Jul-15 06:50 36.212091 130.777939 251 32900ft 490kts
07-Jul-15 06:51 36.166929 130.617457 252 32903ft 498kts
07-Jul-15 06:52 36.121318 130.456592 251 32902ft 494kts
07-Jul-15 06:53 36.075438 130.296262 251 32902ft 494kts
07-Jul-15 06:54 36.029201 130.135697 251 32902ft 499kts
07-Jul-15 06:55 35.982773 129.974865 251 32901ft 495kts
07-Jul-15 06:56 35.941935 129.817138 267 32871ft 490kts
07-Jul-15 06:57 35.956551 129.650568 277 32903ft 491kts
07-Jul-15 06:58 35.979193 129.484303 291 32870ft 493kts
07-Jul-15 06:59 36.053476 129.342593 304 32902ft 494kts
07-Jul-15 07:00 36.133242 129.203957 304 32902ft 495kts
07-Jul-15 07:01 36.212520 129.065757 304 32902ft 495kts
07-Jul-15 07:02 36.292167 128.926378 304 32902ft 495kts
07-Jul-15 07:03 36.370119 128.790049 304 32903ft 495kts
07-Jul-15 07:04 36.435984 128.673990 304 32903ft 495kts
07-Jul-15 07:05 36.514873 128.534318 304 32903ft 494kts
07-Jul-15 07:06 36.603355 128.377026 304 32903ft 493kts
07-Jul-15 07:07 36.681355 128.238381 306 32900ft 485kts
07-Jul-15 07:08 36.744373 128.127624 306 31546ft 466kts
07-Jul-15 07:09 36.817494 127.998723 306 29558ft 453kts
07-Jul-15 07:10 36.877196 127.893003 306 27886ft 443kts
07-Jul-15 07:11 36.877196 127.893003 306 27886ft 443kts
07-Jul-15 07:12 36.877196 127.893003 306 27886ft 443kts
07-Jul-15 07:13 36.887191 127.875346 306 27602ft 441kts
07-Jul-15 07:14 36.956618 127.752612 306 25605ft 430kts
07-Jul-15 07:15 37.022938 127.630385 297 23608ft 421kts
07-Jul-15 07:16 37.055682 127.546188 297 22321ft 414kts
07-Jul-15 07:17 37.087677 127.463221 297 21027ft 409kts
07-Jul-15 07:18 37.136273 127.336727 296 19021ft 402kts
07-Jul-15 07:19 37.183139 127.214146 296 17066ft 396kts
07-Jul-15 07:20 37.229915 127.091016 296 15084ft 391kts
07-Jul-15 07:21 37.275760 126.971327 299 13123ft 385kts
07-Jul-15 07:22 37.317325 126.859178 294 11282ft 381kts
07-Jul-15 07:23 37.395610 126.773181 323 9255ft 376kts
07-Jul-15 07:24 37.480055 126.698753 323 7270ft 370kts
07-Jul-15 07:25 37.562021 126.626128 323 5306ft 365kts
07-Jul-15 07:26 37.639077 126.557806 324 4989ft 312kts
07-Jul-15 07:27 37.704906 126.499322 324 4712ft 285kts
07-Jul-15 07:28 37.742496 126.420417 242 2857ft 288kts
07-Jul-15 07:29 37.689982 126.374482 193 2765ft 199kts
07-Jul-15 07:30 37.643538 126.359777 193 2588ft 172kts
07-Jul-15 07:31 37.597270 126.354637 174 1585ft 164kts
07-Jul-15 07:32 37.559451 126.373210 146 969ft 148kts
07-Jul-15 07:33 37.525628 126.403057 145 946ft 143kts
07-Jul-15 07:34 37.493846 126.431339 145 302ft 138kts
07-Jul-15 07:35 37.470790 126.451811 143 33ft 30kts
07-Jul-15 07:36 37.463261 126.456205 167 33ft 32kts
07-Jul-15 07:37 37.458331 126.454846 260 33ft 16kts
07-Jul-15 07:38 37.456650 126.449332 232 33ft 22kts
07-Jul-15 07:39 37.453864 126.443913 313 33ft 2kts
07-Jul-15 07:40 37.454310 126.443549 325 33ft 0kts
07-Jul-15 07:41 37.454310 126.443549 325 33ft 0kts
07-Jul-15 07:42 37.454310 126.443549 325 33ft 0kts

Navigation Log

Ident Type
1. KORD Airport
2. BAE Navaid
3. BGOSH Fix
4. DLH Navaid
5. HLDOL Fix
6. VBI Navaid
7. YNE Navaid
8. YSM Navaid
9. YXY Navaid
10. ENN Navaid
11. ENM Navaid
12. MUNRI Fix
13. MARCC Fix
14. BESAT Fix
15. NILAR Fix
16. IRKAN Fix
17. GEFAR Fix
18. KUDER Fix
19. MK Navaid
20. UB Navaid
21. SENOR Fix
22. BUMEN Fix
23. LATAK Fix
24. BISIV Fix
25. MVE Navaid
26. CHE Navaid
27. HWE Navaid
28. SAPRA Fix
29. RKSI Airport